createdAt,value
2019-04-16T00:01:45.609Z,18.23
2019-04-16T00:04:47.587Z,17.80
2019-04-16T00:07:35.234Z,16.90
2019-04-16T00:10:12.715Z,16.57
2019-04-16T00:12:55.233Z,16.63
2019-04-16T00:15:25.214Z,16.87
2019-04-16T00:17:55.114Z,17.07
2019-04-16T00:20:25.132Z,17.03
2019-04-16T00:23:07.485Z,17.90
2019-04-16T00:25:37.566Z,17.50
2019-04-16T00:28:07.597Z,16.93
2019-04-16T00:30:37.508Z,17.20
2019-04-16T00:33:10.549Z,17.90
2019-04-16T00:35:39.030Z,16.83
2019-04-16T00:38:08.939Z,17.03
2019-04-16T00:40:38.990Z,17.60
2019-04-16T00:43:08.902Z,17.63
2019-04-16T00:45:38.957Z,17.40
2019-04-16T00:48:08.881Z,17.00
2019-04-16T00:50:38.745Z,18.33
2019-04-16T00:53:09.047Z,17.53
2019-04-16T00:55:39.376Z,18.37
2019-04-16T00:58:09.324Z,19.17
2019-04-16T01:00:39.341Z,18.33
2019-04-16T01:03:09.264Z,17.97
2019-04-16T01:05:39.260Z,17.57
2019-04-16T01:08:09.268Z,18.00
2019-04-16T01:10:39.191Z,19.87
2019-04-16T01:13:09.265Z,18.53
2019-04-16T01:15:39.197Z,18.30
2019-04-16T01:18:09.337Z,18.17
2019-04-16T01:20:40.476Z,19.00
2019-04-16T01:23:11.035Z,19.00
2019-04-16T01:25:41.063Z,18.03
2019-04-16T01:28:14.413Z,18.10
2019-04-16T01:30:56.509Z,19.63
2019-04-16T01:33:54.532Z,18.30
2019-04-16T01:36:36.708Z,18.33
2019-04-16T01:39:17.711Z,17.30
2019-04-16T01:41:39.830Z,17.93
2019-04-16T01:44:09.773Z,18.10
2019-04-16T01:46:39.759Z,17.80
2019-04-16T01:49:11.072Z,18.50
2019-04-16T01:51:41.456Z,18.47
2019-04-16T01:54:11.371Z,17.77
2019-04-16T01:56:41.213Z,17.63
2019-04-16T01:59:11.137Z,18.80
2019-04-16T02:01:43.436Z,18.77
2019-04-16T02:04:12.729Z,18.23
2019-04-16T02:06:42.786Z,18.27
2019-04-16T02:09:22.455Z,18.57
2019-04-16T02:11:44.332Z,19.00
2019-04-16T02:14:16.889Z,18.13
2019-04-16T02:16:46.098Z,18.23
2019-04-16T02:19:16.024Z,18.87
2019-04-16T02:21:46.053Z,18.77
2019-04-16T02:24:18.605Z,19.33
2019-04-16T02:26:47.587Z,18.53
2019-04-16T02:29:17.653Z,19.00
2019-04-16T02:31:51.291Z,19.37
2019-04-16T02:34:19.338Z,19.23
2019-04-16T02:36:49.272Z,18.80
2019-04-16T02:39:25.569Z,18.33
2019-04-16T02:41:56.765Z,19.67
2019-04-16T02:44:22.418Z,19.07
2019-04-16T02:46:52.317Z,19.63
2019-04-16T02:49:24.419Z,17.07
2019-04-16T02:51:59.003Z,18.13
2019-04-16T02:54:36.825Z,17.53
2019-04-16T02:57:27.887Z,18.37
2019-04-16T02:59:59.926Z,18.50
2019-04-16T03:02:53.623Z,17.87
2019-04-16T03:05:35.594Z,17.77
2019-04-16T03:08:05.988Z,17.80
2019-04-16T03:10:36.188Z,18.20
2019-04-16T03:13:06.182Z,18.77
2019-04-16T03:15:54.053Z,18.23
2019-04-16T03:18:29.678Z,19.27
2019-04-16T03:20:59.678Z,18.03
2019-04-16T03:23:29.706Z,18.33
2019-04-16T03:25:59.622Z,17.97
2019-04-16T03:28:29.603Z,18.77
2019-04-16T03:30:59.622Z,18.00
2019-04-16T03:33:29.644Z,18.33
2019-04-16T03:35:59.580Z,17.57
2019-04-16T03:38:29.537Z,18.43
2019-04-16T03:40:59.380Z,18.90
2019-04-16T03:43:31.881Z,18.67
2019-04-16T03:46:00.965Z,18.17
2019-04-16T03:48:30.975Z,18.33
2019-04-16T03:51:03.677Z,17.60
2019-04-16T03:53:32.482Z,18.03
2019-04-16T03:56:02.483Z,18.03
2019-04-16T03:58:32.427Z,18.30
2019-04-16T04:01:02.545Z,19.50
2019-04-16T04:03:32.564Z,19.43
2019-04-16T04:06:03.593Z,18.43
2019-04-16T04:08:34.200Z,19.30
2019-04-16T04:11:09.041Z,19.07
2019-04-16T04:13:36.954Z,18.67
2019-04-16T04:16:07.241Z,17.47
2019-04-16T04:18:37.144Z,18.43
2019-04-16T04:21:07.210Z,18.17
2019-04-16T04:23:37.071Z,18.30
2019-04-16T04:26:08.926Z,18.00
2019-04-16T04:28:38.634Z,17.73
2019-04-16T04:31:08.810Z,18.30
2019-04-16T04:33:41.933Z,18.00
2019-04-16T04:36:11.426Z,18.47
2019-04-16T04:38:41.410Z,17.37
2019-04-16T04:41:11.413Z,16.37
2019-04-16T04:43:41.335Z,17.07
2019-04-16T04:46:14.525Z,17.40
2019-04-16T04:48:42.964Z,18.00
2019-04-16T04:51:12.844Z,17.70
2019-04-16T04:53:42.875Z,18.20
2019-04-16T04:56:12.738Z,17.07
2019-04-16T04:58:42.651Z,17.40
2019-04-16T05:01:14.224Z,17.13
2019-04-16T05:04:20.380Z,17.50
2019-04-16T05:06:50.669Z,17.03
2019-04-16T05:09:20.582Z,17.50
2019-04-16T05:11:50.615Z,18.43
2019-04-16T05:14:20.480Z,18.07
2019-04-16T05:16:50.579Z,17.20
2019-04-16T05:19:20.442Z,17.60
2019-04-16T05:21:50.849Z,17.47
2019-04-16T05:24:20.986Z,17.90
2019-04-16T05:26:50.845Z,18.23
2019-04-16T05:29:23.124Z,19.50
2019-04-16T05:31:54.569Z,19.13
2019-04-16T05:34:24.667Z,17.67
2019-04-16T05:36:55.516Z,19.40
2019-04-16T05:39:28.566Z,19.57
2019-04-16T05:41:58.831Z,18.97
2019-04-16T05:44:33.176Z,20.30
2019-04-16T05:47:00.263Z,20.17
2019-04-16T05:49:30.203Z,20.37
2019-04-16T05:52:02.836Z,20.47
2019-04-16T05:54:45.374Z,20.40
2019-04-16T05:57:19.484Z,21.33
2019-04-16T05:59:49.431Z,20.20
2019-04-16T06:02:24.430Z,21.70
2019-04-16T06:04:55.944Z,21.37
2019-04-16T06:07:25.879Z,20.40
2019-04-16T06:09:55.893Z,21.63
2019-04-16T06:12:32.631Z,21.00
2019-04-16T06:15:22.563Z,20.57
2019-04-16T06:18:10.474Z,18.67
2019-04-16T06:20:52.915Z,18.27
2019-04-16T06:23:37.348Z,17.97
2019-04-16T06:26:20.148Z,17.40
2019-04-16T06:29:03.767Z,16.90
2019-04-16T06:31:44.523Z,16.63
2019-04-16T06:34:24.909Z,16.07
2019-04-16T06:37:05.343Z,16.67
2019-04-16T06:39:39.763Z,16.60
2019-04-16T06:42:21.485Z,16.37
2019-04-16T06:44:51.578Z,17.43
2019-04-16T06:47:32.810Z,16.77
2019-04-16T06:50:30.356Z,16.37
2019-04-16T06:53:08.062Z,17.10
2019-04-16T06:56:15.405Z,16.90
2019-04-16T06:58:58.120Z,16.17
2019-04-16T07:01:49.686Z,15.47
2019-04-16T07:04:37.582Z,15.60
2019-04-16T07:07:37.876Z,16.67
2019-04-16T07:10:01.525Z,16.10
2019-04-16T07:12:38.017Z,16.13
2019-04-16T07:15:08.203Z,16.47
2019-04-16T07:17:40.469Z,14.97
2019-04-16T07:20:13.448Z,14.90
2019-04-16T07:22:42.869Z,14.80
2019-04-16T07:25:12.886Z,16.53
2019-04-16T07:27:58.089Z,14.43
2019-04-16T07:30:41.249Z,14.90
2019-04-16T07:33:36.283Z,15.43
2019-04-16T07:36:27.765Z,16.60
2019-04-16T07:39:28.297Z,15.37
2019-04-16T07:42:10.597Z,15.77
2019-04-16T07:44:55.024Z,16.60
2019-04-16T07:47:42.385Z,16.27
2019-04-16T07:50:41.222Z,14.93
2019-04-16T07:53:30.058Z,15.93
2019-04-16T07:56:03.458Z,15.80
2019-04-16T07:58:33.374Z,16.37
2019-04-16T08:01:03.305Z,16.40
2019-04-16T08:03:33.207Z,16.13
2019-04-16T08:06:03.121Z,16.00
2019-04-16T08:08:32.974Z,15.77
2019-04-16T08:11:02.941Z,15.80
2019-04-16T08:13:34.402Z,16.57
2019-04-16T08:16:04.550Z,16.33
2019-04-16T08:18:36.103Z,16.93
2019-04-16T08:21:11.000Z,15.50
2019-04-16T08:23:40.686Z,15.93
2019-04-16T08:26:13.071Z,16.20
2019-04-16T08:28:42.209Z,15.00
2019-04-16T08:31:18.089Z,15.57
2019-04-16T08:33:47.942Z,16.27
2019-04-16T08:36:18.545Z,15.37
2019-04-16T08:38:48.491Z,15.30
2019-04-16T08:41:21.131Z,14.10
2019-04-16T08:43:50.160Z,12.47
2019-04-16T08:46:20.192Z,12.13
2019-04-16T08:48:53.960Z,12.93
2019-04-16T08:51:30.280Z,13.27
2019-04-16T08:53:53.298Z,13.47
2019-04-16T08:56:23.304Z,10.60
2019-04-16T08:58:56.436Z,11.20
2019-04-16T09:01:27.603Z,9.57
2019-04-16T09:04:01.430Z,10.50
2019-04-16T09:06:29.079Z,10.77
2019-04-16T09:09:24.423Z,10.40
2019-04-16T09:11:58.335Z,9.93
2019-04-16T09:14:30.083Z,9.70
2019-04-16T09:17:17.883Z,10.77
2019-04-16T09:19:53.061Z,10.50
2019-04-16T09:22:22.918Z,11.03
2019-04-16T09:24:58.269Z,10.27
2019-04-16T09:27:50.670Z,11.00
2019-04-16T09:30:38.244Z,10.63
2019-04-16T09:33:14.149Z,10.63
2019-04-16T09:35:54.533Z,10.03
2019-04-16T09:38:30.008Z,9.47
2019-04-16T09:41:25.032Z,10.10
2019-04-16T09:43:58.104Z,9.00
2019-04-16T09:46:49.945Z,9.87
2019-04-16T09:49:00.006Z,9.20
2019-04-16T09:51:29.930Z,9.37
2019-04-16T09:53:59.846Z,9.30
2019-04-16T09:56:30.476Z,9.57
2019-04-16T09:59:22.345Z,8.80
2019-04-16T10:02:04.396Z,8.27
2019-04-16T10:04:34.388Z,7.97
2019-04-16T10:07:04.687Z,9.07
2019-04-16T10:09:34.684Z,7.93
2019-04-16T10:12:07.798Z,8.50
2019-04-16T10:14:37.498Z,8.20
2019-04-16T10:17:07.806Z,8.57
2019-04-16T10:19:43.055Z,8.57
2019-04-16T10:22:10.595Z,8.90
2019-04-16T10:24:58.804Z,8.53
2019-04-16T10:27:32.812Z,8.13
2019-04-16T10:30:02.845Z,7.13
2019-04-16T10:32:33.002Z,8.10
2019-04-16T10:35:02.924Z,8.07
2019-04-16T10:37:32.893Z,7.60
2019-04-16T10:40:18.786Z,7.70
2019-04-16T10:43:20.003Z,7.67
2019-04-16T10:46:09.813Z,7.90
2019-04-16T10:49:10.202Z,7.10
2019-04-16T10:51:50.472Z,7.20
2019-04-16T10:54:37.258Z,7.83
2019-04-16T10:57:25.682Z,7.20
2019-04-16T11:00:13.271Z,7.07
2019-04-16T11:02:46.848Z,8.17
2019-04-16T11:05:29.498Z,7.50
2019-04-16T11:08:00.013Z,7.03
2019-04-16T11:10:30.080Z,7.40
2019-04-16T11:13:00.886Z,6.47
2019-04-16T11:15:30.802Z,6.87
2019-04-16T11:18:01.715Z,7.47
2019-04-16T11:20:31.616Z,6.60
2019-04-16T11:23:02.889Z,6.20
2019-04-16T11:25:32.834Z,7.23
2019-04-16T11:28:02.809Z,6.80
2019-04-16T11:30:39.272Z,5.90
2019-04-16T11:33:09.283Z,6.10
2019-04-16T11:35:39.304Z,5.77
2019-04-16T11:38:09.303Z,6.47
2019-04-16T11:40:41.239Z,4.10
2019-04-16T11:43:10.918Z,2.80
2019-04-16T11:45:40.869Z,2.90
2019-04-16T11:48:10.789Z,3.47
2019-04-16T11:50:40.690Z,5.40
2019-04-16T11:53:10.627Z,4.90
2019-04-16T11:55:40.545Z,5.20
2019-04-16T11:58:26.332Z,7.50
2019-04-16T12:01:02.691Z,8.70
2019-04-16T12:03:47.311Z,7.63
2019-04-16T12:06:33.597Z,8.03
2019-04-16T12:09:32.304Z,7.67
2019-04-16T12:12:07.200Z,8.03
2019-04-16T12:14:44.928Z,9.27
2019-04-16T12:17:51.923Z,8.80
2019-04-16T12:20:39.498Z,8.70
2019-04-16T12:23:20.773Z,8.73
2019-04-16T12:25:57.362Z,7.60
2019-04-16T12:28:42.202Z,8.53
2019-04-16T12:31:26.709Z,8.00
2019-04-16T12:34:06.227Z,9.13
2019-04-16T12:36:58.675Z,9.80
2019-04-16T12:39:36.900Z,12.00
2019-04-16T12:42:25.857Z,10.57
2019-04-16T12:44:59.752Z,10.53
2019-04-16T12:47:46.950Z,10.20
2019-04-16T12:50:26.968Z,10.80
2019-04-16T12:53:12.313Z,10.10
2019-04-16T12:56:08.026Z,10.57
2019-04-16T12:58:50.438Z,10.57
2019-04-16T13:01:36.342Z,10.80
2019-04-16T13:04:14.491Z,10.60
2019-04-16T13:07:12.291Z,10.77
2019-04-16T13:09:55.735Z,9.90
2019-04-16T13:12:47.822Z,9.10
2019-04-16T13:15:25.457Z,8.97
2019-04-16T13:18:26.372Z,8.43
2019-04-16T13:21:13.620Z,7.87
2019-04-16T13:24:05.446Z,7.67
2019-04-16T13:26:41.919Z,8.53
2019-04-16T13:29:20.830Z,8.30
2019-04-16T13:31:50.808Z,8.27
2019-04-16T13:34:20.855Z,8.80
2019-04-16T13:36:51.904Z,8.00
2019-04-16T13:40:01.737Z,7.47
2019-04-16T13:42:31.855Z,7.37
2019-04-16T13:45:27.513Z,9.83
2019-04-16T13:48:13.852Z,9.97
2019-04-16T13:50:40.771Z,9.87
2019-04-16T13:53:29.039Z,11.53
2019-04-16T13:56:20.672Z,9.97
2019-04-16T13:58:59.237Z,9.80
2019-04-16T14:01:30.954Z,8.63
2019-04-16T14:04:00.963Z,8.83
2019-04-16T14:06:31.965Z,8.93
2019-04-16T14:09:01.877Z,8.30
2019-04-16T14:11:33.514Z,8.60
2019-04-16T14:14:07.658Z,9.03
2019-04-16T14:16:35.155Z,8.30
2019-04-16T14:19:06.775Z,7.53
2019-04-16T14:21:37.017Z,7.93
2019-04-16T14:24:07.182Z,10.00
2019-04-16T14:26:37.293Z,9.17
2019-04-16T14:29:07.846Z,8.80
2019-04-16T14:31:37.912Z,9.20
2019-04-16T14:34:25.793Z,9.37
2019-04-16T14:36:56.984Z,9.30
2019-04-16T14:39:33.387Z,9.70
2019-04-16T14:42:03.389Z,10.80
2019-04-16T14:44:38.895Z,11.20
2019-04-16T14:47:08.811Z,9.70
2019-04-16T14:49:38.921Z,11.13
2019-04-16T14:52:09.091Z,10.97
2019-04-16T14:54:53.433Z,11.40
2019-04-16T14:57:23.370Z,10.97
2019-04-16T15:00:01.157Z,11.17
2019-04-16T15:02:46.542Z,10.63
2019-04-16T15:05:28.529Z,11.47
2019-04-16T15:08:16.464Z,10.80
2019-04-16T15:11:11.446Z,11.00
2019-04-16T15:13:49.446Z,11.43
2019-04-16T15:16:53.604Z,10.80
2019-04-16T15:19:40.589Z,10.70
2019-04-16T15:22:33.553Z,9.57
2019-04-16T15:25:21.170Z,10.47
2019-04-16T15:28:16.159Z,9.73
2019-04-16T15:31:04.992Z,10.30
2019-04-16T15:33:39.771Z,9.13
2019-04-16T15:36:18.516Z,9.40
2019-04-16T15:38:53.724Z,8.50
2019-04-16T15:41:44.666Z,9.33
2019-04-16T15:44:23.611Z,8.97
2019-04-16T15:47:15.035Z,8.93
2019-04-16T15:50:04.055Z,9.10
2019-04-16T15:52:46.859Z,10.30
2019-04-16T15:55:35.755Z,9.50
2019-04-16T15:58:14.758Z,10.13
2019-04-16T16:00:56.897Z,10.20
2019-04-16T16:03:42.017Z,10.30
2019-04-16T16:06:20.399Z,10.10
2019-04-16T16:08:54.257Z,10.13
2019-04-16T16:11:29.470Z,9.97
2019-04-16T16:14:01.122Z,10.03
2019-04-16T16:16:41.628Z,10.23
2019-04-16T16:19:02.764Z,9.70
2019-04-16T16:21:32.609Z,9.23
2019-04-16T16:24:06.665Z,9.30
2019-04-16T16:26:34.065Z,9.63
2019-04-16T16:29:04.230Z,10.03
2019-04-16T16:31:35.701Z,10.00
2019-04-16T16:34:08.771Z,8.70
2019-04-16T16:36:40.457Z,8.80
2019-04-16T16:39:11.161Z,9.27
2019-04-16T16:41:46.499Z,9.30
2019-04-16T16:44:15.384Z,8.70
2019-04-16T16:46:58.025Z,8.77
2019-04-16T16:49:28.083Z,9.43
2019-04-16T16:52:25.134Z,7.97
2019-04-16T16:54:56.133Z,8.77
2019-04-16T16:57:30.785Z,7.80
2019-04-16T17:00:20.787Z,6.80
2019-04-16T17:02:54.163Z,6.93
2019-04-16T17:05:28.495Z,7.70
2019-04-16T17:07:58.502Z,7.37
2019-04-16T17:10:28.452Z,7.00
2019-04-16T17:12:58.425Z,7.47
2019-04-16T17:15:28.390Z,7.37
2019-04-16T17:17:58.294Z,7.43
2019-04-16T17:20:29.276Z,7.10
2019-04-16T17:22:59.189Z,6.80
2019-04-16T17:25:36.265Z,6.87
2019-04-16T17:28:00.806Z,6.90
2019-04-16T17:30:31.857Z,6.37
2019-04-16T17:33:01.833Z,6.00
2019-04-16T17:35:32.180Z,5.80
2019-04-16T17:38:03.735Z,5.87
2019-04-16T17:40:46.698Z,6.70
2019-04-16T17:43:22.057Z,6.33
2019-04-16T17:46:17.647Z,6.70
2019-04-16T17:49:02.956Z,5.83
2019-04-16T17:51:43.933Z,5.93
2019-04-16T17:54:50.974Z,5.30
2019-04-16T17:57:58.072Z,4.73
2019-04-16T18:01:02.170Z,5.07
2019-04-16T18:03:48.996Z,4.17
2019-04-16T18:06:44.003Z,4.60
2019-04-16T18:09:35.348Z,4.37
2019-04-16T18:12:33.581Z,4.57
2019-04-16T18:15:15.053Z,4.03
2019-04-16T18:17:51.224Z,4.40
2019-04-16T18:20:40.020Z,4.10
2019-04-16T18:23:27.949Z,4.53
2019-04-16T18:26:15.502Z,4.63
2019-04-16T18:28:54.956Z,4.87
2019-04-16T18:31:32.332Z,5.03
2019-04-16T18:34:33.294Z,5.60
2019-04-16T18:37:21.214Z,5.20
2019-04-16T18:40:10.222Z,5.53
2019-04-16T18:42:50.638Z,5.23
2019-04-16T18:45:39.639Z,5.53
2019-04-16T18:48:15.535Z,5.43
2019-04-16T18:50:45.389Z,5.30
2019-04-16T18:53:15.371Z,5.47
2019-04-16T18:55:45.292Z,5.10
2019-04-16T18:58:15.201Z,4.80
2019-04-16T19:00:47.221Z,5.27
2019-04-16T19:03:17.125Z,4.97
2019-04-16T19:05:47.118Z,4.67
2019-04-16T19:08:17.301Z,5.50
2019-04-16T19:10:47.128Z,5.30
2019-04-16T19:13:19.874Z,4.53
2019-04-16T19:15:48.622Z,4.53
2019-04-16T19:18:20.175Z,4.17
2019-04-16T19:20:51.863Z,3.93
2019-04-16T19:23:22.277Z,4.53
2019-04-16T19:25:55.356Z,4.20
2019-04-16T19:28:25.058Z,4.37
2019-04-16T19:30:55.886Z,4.40
2019-04-16T19:33:25.875Z,4.50
2019-04-16T19:35:55.789Z,4.77
2019-04-16T19:38:25.682Z,4.53
2019-04-16T19:40:55.731Z,4.30
2019-04-16T19:43:28.261Z,4.90
2019-04-16T19:45:57.288Z,5.10
2019-04-16T19:48:35.505Z,4.93
2019-04-16T19:50:58.889Z,4.87
2019-04-16T19:53:28.829Z,5.30
2019-04-16T19:55:58.788Z,5.27
2019-04-16T19:58:28.691Z,5.17
2019-04-16T20:00:59.146Z,5.20
2019-04-16T20:03:31.252Z,4.90
2019-04-16T20:06:01.699Z,4.97
2019-04-16T20:08:36.767Z,5.20
2019-04-16T20:11:04.297Z,4.77
2019-04-16T20:13:34.276Z,4.87
2019-04-16T20:16:04.187Z,4.73
2019-04-16T20:18:49.996Z,4.60
2019-04-16T20:21:05.838Z,4.90
2019-04-16T20:23:35.746Z,4.80
2019-04-16T20:26:05.909Z,4.60
2019-04-16T20:28:35.735Z,4.90
2019-04-16T20:31:05.716Z,4.77
2019-04-16T20:33:35.633Z,5.00
2019-04-16T20:36:05.717Z,5.73
2019-04-16T20:38:35.625Z,5.13
2019-04-16T20:41:05.987Z,5.60
2019-04-16T20:43:35.920Z,5.33
2019-04-16T20:46:06.136Z,5.20
2019-04-16T20:48:36.039Z,5.23
2019-04-16T20:51:06.177Z,4.80
2019-04-16T20:53:38.014Z,4.87
2019-04-16T20:56:10.474Z,4.90
2019-04-16T20:58:39.661Z,4.90
2019-04-16T21:01:09.554Z,5.03
2019-04-16T21:03:39.395Z,4.63
2019-04-16T21:06:09.739Z,5.20
2019-04-16T21:08:39.626Z,4.50
2019-04-16T21:11:09.827Z,5.00
2019-04-16T21:13:39.893Z,5.63
2019-04-16T21:16:09.869Z,4.70
2019-04-16T21:18:39.712Z,5.07
2019-04-16T21:21:09.624Z,5.97
2019-04-16T21:23:39.541Z,5.43
2019-04-16T21:26:10.570Z,5.17
2019-04-16T21:28:49.519Z,4.63
2019-04-16T21:31:27.317Z,4.87
2019-04-16T21:34:14.962Z,4.87
2019-04-16T21:36:52.467Z,5.17
2019-04-16T21:39:30.173Z,5.13
2019-04-16T21:42:02.813Z,5.10
2019-04-16T21:44:31.551Z,4.93
2019-04-16T21:47:01.397Z,5.20
2019-04-16T21:49:38.758Z,5.23
2019-04-16T21:52:08.860Z,4.60
2019-04-16T21:54:39.390Z,5.17
2019-04-16T21:57:13.636Z,5.17
2019-04-16T21:59:41.862Z,5.00
2019-04-16T22:02:17.779Z,5.40
2019-04-16T22:04:48.681Z,4.90
2019-04-16T22:07:24.210Z,4.97
2019-04-16T22:09:51.460Z,5.43
2019-04-16T22:12:21.401Z,5.47
2019-04-16T22:14:54.475Z,5.50
2019-04-16T22:17:23.183Z,5.50
2019-04-16T22:19:54.780Z,5.30
2019-04-16T22:22:27.516Z,5.23
2019-04-16T22:24:56.427Z,5.10
2019-04-16T22:27:26.298Z,5.27
2019-04-16T22:29:56.387Z,4.93
2019-04-16T22:32:26.986Z,5.50
2019-04-16T22:34:58.134Z,4.73
2019-04-16T22:37:28.125Z,4.60
2019-04-16T22:40:15.932Z,4.33
2019-04-16T22:43:11.057Z,4.63
2019-04-16T22:45:45.858Z,3.73
2019-04-16T22:48:16.811Z,4.10
2019-04-16T22:50:46.775Z,4.33
2019-04-16T22:53:17.904Z,4.23
2019-04-16T22:55:47.933Z,4.03
2019-04-16T22:58:24.580Z,4.37
2019-04-16T23:00:59.486Z,3.90
2019-04-16T23:03:29.365Z,3.87
2019-04-16T23:06:00.916Z,3.33
2019-04-16T23:08:30.838Z,3.90
2019-04-16T23:11:00.807Z,3.77
2019-04-16T23:13:32.475Z,4.03
2019-04-16T23:16:02.311Z,3.63
2019-04-16T23:18:32.126Z,3.83
2019-04-16T23:21:02.088Z,3.80
2019-04-16T23:23:31.987Z,3.57
2019-04-16T23:26:01.927Z,4.13
2019-04-16T23:28:31.826Z,4.10
2019-04-16T23:31:01.813Z,4.20
2019-04-16T23:33:32.871Z,3.63
2019-04-16T23:36:04.562Z,4.37
2019-04-16T23:38:34.402Z,4.37
2019-04-16T23:41:04.443Z,4.00
2019-04-16T23:43:45.740Z,4.30
2019-04-16T23:46:28.698Z,4.00
2019-04-16T23:49:34.497Z,4.60
2019-04-16T23:52:13.249Z,4.23
2019-04-16T23:54:54.313Z,4.47
2019-04-16T23:57:29.341Z,4.30
